Time;durP1;ratioP1;P1;durP2;ratioP2;P2;SDS_P1;SDS_P2;PMS_P1;PMS_P2;Temp;Humidity;BMP_temperature;BMP_pressure;BME280_temperature;BME280_humidity;BME280_pressure;Samples;Min_cycle;Max_cycle;Signal;HPM_P1;HPM_P2
2022/12/04 00:01:31;;;;;;;93.37;18.67;;;3.10;99.90;;;;;;5044731;28;20231;-85
2022/12/04 00:03:59;;;;;;;91.80;18.30;;;3.10;99.90;;;;;;5044923;28;20185;-85
2022/12/04 00:06:26;;;;;;;90.35;17.23;;;3.10;99.90;;;;;;5044755;28;20165;-85
2022/12/04 00:08:52;;;;;;;92.43;18.33;;;3.10;99.90;;;;;;5043595;28;20204;-85
2022/12/04 00:11:21;;;;;;;92.25;17.88;;;3.10;99.90;;;;;;5042879;28;20674;-85
2022/12/04 00:13:47;;;;;;;86.60;18.30;;;3.10;99.90;;;;;;5044626;28;20165;-85
2022/12/04 00:16:16;;;;;;;87.93;16.23;;;3.10;99.90;;;;;;5043070;28;20635;-85
2022/12/04 00:18:42;;;;;;;90.63;17.35;;;3.10;99.90;;;;;;5044432;28;20411;-85
2022/12/04 00:21:09;;;;;;;85.73;15.77;;;3.00;99.90;;;;;;5042721;28;20193;-85
2022/12/04 00:23:36;;;;;;;96.47;17.73;;;3.10;99.90;;;;;;5044014;28;20924;-85
2022/12/04 00:26:15;;;;;;;92.88;17.85;;;3.10;99.90;;;;;;5044406;28;20527;-85
2022/12/04 00:28:44;;;;;;;88.03;17.15;;;3.00;99.90;;;;;;5044336;28;20260;-85
2022/12/04 00:31:13;;;;;;;95.78;17.75;;;3.00;99.90;;;;;;5044016;28;20192;-85
2022/12/04 00:33:39;;;;;;;94.30;18.55;;;3.00;99.90;;;;;;5044098;28;20165;-85
2022/12/04 00:36:08;;;;;;;93.13;20.30;;;3.00;99.90;;;;;;5044118;28;20643;-85
2022/12/04 00:38:34;;;;;;;90.50;18.27;;;3.00;99.90;;;;;;5043655;28;20646;-85
2022/12/04 00:41:00;;;;;;;90.85;18.90;;;3.00;99.90;;;;;;5045070;28;20181;-85
2022/12/04 00:43:27;;;;;;;90.47;17.70;;;2.90;99.90;;;;;;5042947;28;20195;-85
2022/12/04 00:45:52;;;;;;;93.10;17.33;;;3.00;99.90;;;;;;5042547;28;20177;-84
2022/12/04 00:48:18;;;;;;;90.10;19.50;;;3.00;99.90;;;;;;5044055;28;20168;-85
2022/12/04 00:50:44;;;;;;;88.65;19.58;;;3.10;99.90;;;;;;5044002;28;20185;-85
2022/12/04 00:53:11;;;;;;;89.70;18.13;;;3.10;99.90;;;;;;5043724;28;20523;-85
2022/12/04 00:55:38;;;;;;;88.28;19.98;;;3.00;99.90;;;;;;5043988;28;20161;-85
2022/12/04 00:58:04;;;;;;;92.10;20.58;;;2.90;99.90;;;;;;5043678;28;20177;-84
2022/12/04 01:00:30;;;;;;;87.43;18.23;;;2.90;99.90;;;;;;5042068;28;20185;-85
2022/12/04 01:02:56;;;;;;;89.00;20.20;;;2.90;99.90;;;;;;5043693;28;20631;-85
2022/12/04 01:05:21;;;;;;;94.33;20.37;;;2.90;99.90;;;;;;5043818;28;20432;-84
2022/12/04 01:07:47;;;;;;;89.73;18.17;;;2.90;99.90;;;;;;5043637;28;20191;-85
2022/12/04 01:10:13;;;;;;;87.23;17.87;;;2.90;99.90;;;;;;5042689;28;20213;-85
2022/12/04 01:12:38;;;;;;;87.47;18.27;;;2.90;99.90;;;;;;5043757;28;20158;-85
2022/12/04 01:15:05;;;;;;;92.10;19.10;;;2.90;99.90;;;;;;5042768;28;20169;-85
2022/12/04 01:17:30;;;;;;;86.20;17.10;;;2.90;99.90;;;;;;5041901;28;20303;-86
2022/12/04 01:19:56;;;;;;;86.67;20.37;;;2.90;99.90;;;;;;5042928;28;20185;-85
2022/12/04 01:22:22;;;;;;;90.80;18.20;;;2.90;99.90;;;;;;5043466;28;20211;-85
2022/12/04 01:24:47;;;;;;;88.80;17.10;;;2.90;99.90;;;;;;5043455;28;20208;-85
2022/12/04 01:27:13;;;;;;;98.80;21.53;;;3.00;99.90;;;;;;5043328;28;20174;-85
2022/12/04 01:29:39;;;;;;;85.00;16.23;;;3.00;99.90;;;;;;5042439;28;20193;-85
2022/12/04 01:32:05;;;;;;;86.67;18.33;;;3.00;99.90;;;;;;5043121;28;20173;-85
2022/12/04 01:34:30;;;;;;;89.38;17.92;;;3.00;99.90;;;;;;5042510;28;20161;-85
2022/12/04 01:36:56;;;;;;;90.37;16.70;;;3.00;99.90;;;;;;5042001;28;20165;-84
2022/12/04 01:39:21;;;;;;;89.13;15.60;;;3.00;99.90;;;;;;5042825;28;20165;-85
2022/12/04 01:41:47;;;;;;;86.53;17.33;;;3.00;99.90;;;;;;5042586;28;20185;-85
2022/12/04 01:44:17;;;;;;;88.10;17.67;;;3.00;99.90;;;;;;5043598;28;20231;-84
2022/12/04 01:46:53;;;;;;;92.53;18.10;;;2.90;99.90;;;;;;5043041;28;20169;-85
2022/12/04 01:49:43;;;;;;;88.80;16.98;;;2.90;99.90;;;;;;5040744;28;20189;-85
2022/12/04 01:52:14;;;;;;;85.43;15.30;;;3.00;99.90;;;;;;5042836;28;20179;-85
2022/12/04 01:54:45;;;;;;;83.80;16.00;;;3.10;99.90;;;;;;5042348;28;20157;-85
2022/12/04 01:57:18;;;;;;;96.07;17.83;;;3.10;99.90;;;;;;5043431;28;20153;-84
2022/12/04 01:59:49;;;;;;;88.35;15.40;;;3.10;99.90;;;;;;5042718;28;20189;-85
2022/12/04 02:02:20;;;;;;;87.45;15.57;;;3.00;99.90;;;;;;5042945;28;20149;-85
2022/12/04 02:04:47;;;;;;;90.30;16.27;;;3.00;99.90;;;;;;5041399;28;20168;-85
2022/12/04 02:07:12;;;;;;;85.03;15.55;;;3.10;99.90;;;;;;5041715;28;20176;-85
2022/12/04 02:09:40;;;;;;;87.30;15.40;;;3.00;99.90;;;;;;5042435;28;20242;-84
2022/12/04 02:12:13;;;;;;;88.95;16.10;;;3.00;99.90;;;;;;5042761;28;20492;-85
2022/12/04 02:15:03;;;;;;;87.38;15.20;;;3.00;99.90;;;;;;5043239;28;20185;-85
2022/12/04 02:17:51;;;;;;;84.82;14.88;;;3.00;99.90;;;;;;5041506;28;20169;-85
2022/12/04 02:20:46;;;;;;;87.20;15.63;;;3.00;99.90;;;;;;5041251;28;20196;-84
2022/12/04 02:23:35;;;;;;;84.57;15.57;;;2.90;99.90;;;;;;5042532;28;20150;-84
2022/12/04 02:26:22;;;;;;;83.07;16.33;;;2.90;99.90;;;;;;5041703;28;20154;-85
2022/12/04 02:28:51;;;;;;;85.53;15.77;;;3.00;99.90;;;;;;5040692;28;20247;-85
2022/12/04 02:31:21;;;;;;;81.20;12.88;;;3.00;99.90;;;;;;5042629;28;20178;-84
2022/12/04 02:33:56;;;;;;;81.60;13.43;;;2.80;99.90;;;;;;5041831;28;20177;-85
2022/12/04 02:36:25;;;;;;;81.78;14.25;;;2.90;99.90;;;;;;5042704;28;20692;-85
2022/12/04 02:38:53;;;;;;;80.47;13.68;;;2.80;99.90;;;;;;5042343;28;20196;-85
2022/12/04 02:41:29;;;;;;;82.95;13.10;;;2.80;99.90;;;;;;5042048;28;20592;-85
2022/12/04 02:44:08;;;;;;;77.43;12.88;;;2.80;99.90;;;;;;5041428;28;20172;-85
2022/12/04 02:46:38;;;;;;;81.05;13.40;;;2.90;99.90;;;;;;5045365;28;20200;-85
2022/12/04 02:49:10;;;;;;;81.78;14.63;;;2.80;99.90;;;;;;5046500;28;20186;-85
2022/12/04 02:51:39;;;;;;;84.30;13.70;;;2.80;99.90;;;;;;5046016;28;20177;-85
2022/12/04 02:54:10;;;;;;;81.85;14.00;;;2.80;99.90;;;;;;5046506;28;20181;-85
2022/12/04 02:56:41;;;;;;;81.57;12.90;;;2.70;99.90;;;;;;5045186;28;20173;-85
2022/12/04 02:59:13;;;;;;;85.07;13.93;;;2.70;99.90;;;;;;5044657;28;20196;-85
2022/12/04 03:01:41;;;;;;;83.32;12.60;;;2.70;99.90;;;;;;5043658;28;20224;-84
2022/12/04 03:04:20;;;;;;;82.05;12.25;;;2.70;99.90;;;;;;5045389;28;20176;-85
2022/12/04 03:06:57;;;;;;;81.50;13.30;;;2.80;99.90;;;;;;5046076;28;20169;-85
2022/12/04 03:09:29;;;;;;;84.65;13.70;;;2.70;99.90;;;;;;5045772;28;20176;-85
2022/12/04 03:12:04;;;;;;;78.28;12.45;;;2.70;99.90;;;;;;5045503;28;20207;-84
2022/12/04 03:14:36;;;;;;;83.28;12.68;;;2.70;99.90;;;;;;5045352;28;20153;-84
2022/12/04 03:17:08;;;;;;;82.13;14.75;;;2.80;99.90;;;;;;5045558;28;20150;-85
2022/12/04 03:19:52;;;;;;;80.50;13.50;;;2.80;99.90;;;;;;5045022;28;20156;-85
2022/12/04 03:22:20;;;;;;;78.15;12.30;;;2.80;99.90;;;;;;5045589;28;20164;-85
2022/12/04 03:24:51;;;;;;;80.82;13.73;;;2.90;99.90;;;;;;5027548;28;20172;-85
2022/12/04 03:27:50;;;;;;;79.85;12.50;;;2.90;99.90;;;;;;5045951;28;20233;-85
2022/12/04 03:30:20;;;;;;;82.03;14.23;;;2.70;99.90;;;;;;5045537;28;20196;-85
2022/12/04 03:33:14;;;;;;;82.13;13.90;;;2.70;99.90;;;;;;5043527;28;20161;-84
2022/12/04 03:36:11;;;;;;;79.97;14.18;;;2.70;99.90;;;;;;5044761;28;20150;-84
2022/12/04 03:38:52;;;;;;;80.65;12.80;;;2.70;99.90;;;;;;5044803;28;20173;-85
2022/12/04 03:41:30;;;;;;;81.00;12.57;;;2.70;99.90;;;;;;5044739;28;20215;-85
2022/12/04 03:44:22;;;;;;;78.32;13.35;;;2.60;99.90;;;;;;5046042;28;20244;-86
2022/12/04 03:46:56;;;;;;;80.40;14.73;;;2.60;99.90;;;;;;5045365;28;20173;-84
2022/12/04 03:49:42;;;;;;;81.10;13.18;;;2.60;99.90;;;;;;5043305;28;20185;-85
2022/12/04 03:52:23;;;;;;;84.00;13.93;;;2.60;99.90;;;;;;5044904;28;20212;-84
2022/12/04 03:54:55;;;;;;;84.20;14.98;;;2.60;99.90;;;;;;5045237;28;20173;-84
2022/12/04 03:57:29;;;;;;;82.70;13.55;;;2.60;99.90;;;;;;5043423;28;20161;-85
2022/12/04 04:00:07;;;;;;;81.10;12.90;;;2.70;99.90;;;;;;5043160;28;20260;-85
2022/12/04 04:02:40;;;;;;;80.28;16.20;;;2.60;99.90;;;;;;5045403;28;20153;-85
2022/12/04 04:05:09;;;;;;;78.15;12.73;;;2.60;99.90;;;;;;5045424;28;20158;-84
2022/12/04 04:07:44;;;;;;;80.57;12.82;;;2.60;99.90;;;;;;5044325;28;20223;-84
2022/12/04 04:10:16;;;;;;;77.70;12.10;;;2.60;99.90;;;;;;5045198;28;20694;-85
2022/12/04 04:24:54;;;;;;;80.43;15.32;;;2.60;99.90;;;;;;5044896;28;20160;-84
2022/12/04 04:27:20;;;;;;;80.22;14.40;;;2.60;99.90;;;;;;5038649;28;20177;-85
2022/12/04 04:29:45;;;;;;;81.20;13.20;;;2.50;99.90;;;;;;5042987;28;20307;-85
2022/12/04 04:32:28;;;;;;;83.80;15.47;;;2.50;99.90;;;;;;5041856;28;20168;-84
2022/12/04 04:35:02;;;;;;;79.38;13.05;;;2.50;99.90;;;;;;5043531;28;20145;-84
2022/12/04 04:37:34;;;;;;;77.65;11.98;;;2.50;99.90;;;;;;5041967;28;20152;-84
2022/12/04 04:40:06;;;;;;;82.22;13.73;;;2.50;99.90;;;;;;5042888;28;20196;-84
2022/12/04 04:42:57;;;;;;;79.65;14.00;;;2.40;99.90;;;;;;5042975;28;20232;-85
2022/12/04 04:45:35;;;;;;;84.78;15.23;;;2.50;99.90;;;;;;5042024;28;20181;-84
2022/12/04 04:48:03;;;;;;;79.15;13.88;;;2.40;99.90;;;;;;5041395;28;20161;-84
2022/12/04 04:50:31;;;;;;;78.97;13.60;;;2.40;99.90;;;;;;5043592;28;20700;-84
2022/12/04 04:53:03;;;;;;;80.35;14.80;;;2.40;99.90;;;;;;5043475;28;20165;-84
2022/12/04 04:55:33;;;;;;;78.50;13.35;;;2.40;99.90;;;;;;5043732;28;20158;-84
2022/12/04 04:58:13;;;;;;;79.47;12.93;;;2.40;99.90;;;;;;5041433;28;20181;-84
2022/12/04 05:00:40;;;;;;;78.80;13.13;;;2.50;99.90;;;;;;5043673;28;20189;-85
2022/12/04 05:03:06;;;;;;;81.93;15.35;;;2.40;99.90;;;;;;5043307;28;20179;-84
2022/12/04 05:05:31;;;;;;;79.40;12.73;;;2.40;99.90;;;;;;5043320;28;20192;-84
2022/12/04 05:07:57;;;;;;;80.47;14.47;;;2.40;99.90;;;;;;5042627;28;20261;-84
2022/12/04 05:10:23;;;;;;;78.23;13.10;;;2.40;99.90;;;;;;5043336;28;20231;-84
2022/12/04 05:12:49;;;;;;;78.47;13.37;;;2.50;99.90;;;;;;5043558;28;20191;-85
2022/12/04 05:15:14;;;;;;;78.03;12.37;;;2.50;99.90;;;;;;5042263;28;20462;-84
2022/12/04 05:17:40;;;;;;;81.97;13.77;;;2.50;99.90;;;;;;5041984;28;20173;-84
2022/12/04 05:20:06;;;;;;;81.53;13.80;;;2.40;99.90;;;;;;5043409;28;20193;-85
2022/12/04 05:22:35;;;;;;;80.72;14.65;;;2.40;99.90;;;;;;5043253;28;20173;-84
2022/12/04 05:25:01;;;;;;;78.10;13.40;;;2.40;99.90;;;;;;5043356;28;20180;-84
2022/12/04 05:27:29;;;;;;;80.32;15.95;;;2.40;99.90;;;;;;5042919;28;20165;-85
2022/12/04 05:29:56;;;;;;;77.68;12.90;;;2.40;99.90;;;;;;5042994;28;20679;-83
2022/12/04 05:32:25;;;;;;;78.82;13.07;;;2.40;99.90;;;;;;5041551;28;20563;-84
2022/12/04 05:34:52;;;;;;;78.93;12.93;;;2.40;99.90;;;;;;5040840;28;20165;-84
2022/12/04 05:37:21;;;;;;;80.63;14.98;;;2.40;99.90;;;;;;5041691;28;20169;-85
2022/12/04 05:39:47;;;;;;;79.90;13.68;;;2.40;99.90;;;;;;5042920;28;20219;-85
2022/12/04 05:42:13;;;;;;;77.37;13.40;;;2.40;99.90;;;;;;5040967;28;20173;-83
2022/12/04 05:44:39;;;;;;;79.03;13.10;;;2.40;99.90;;;;;;5042869;28;20490;-84
2022/12/04 05:47:05;;;;;;;75.87;12.50;;;2.40;99.90;;;;;;5042863;28;20211;-85
2022/12/04 05:49:32;;;;;;;81.90;13.02;;;2.40;99.90;;;;;;5041527;28;20535;-84
2022/12/04 05:51:58;;;;;;;79.45;13.07;;;2.50;99.90;;;;;;5042368;28;20165;-85
2022/12/04 05:54:24;;;;;;;77.17;12.00;;;2.50;99.90;;;;;;5044244;28;20527;-84
2022/12/04 05:56:50;;;;;;;79.85;12.68;;;2.50;99.90;;;;;;5041924;28;20643;-85
2022/12/04 05:59:31;;;;;;;81.40;14.05;;;2.50;99.90;;;;;;5121979;22;20315;-87
2022/12/04 06:02:51;;;;;;;80.28;13.75;;;2.40;99.90;;;;;;5035856;28;20176;-86
2022/12/04 06:05:38;;;;;;;;;;;;;;;;;;;;;
2022/12/04 06:08:41;;;;;;;81.55;12.30;;;2.50;99.90;;;;;;5036856;28;20232;-87
2022/12/04 06:11:32;;;;;;;79.30;14.40;;;2.40;99.90;;;;;;5035745;28;20193;-87
2022/12/04 06:14:16;;;;;;;78.35;12.50;;;2.50;99.90;;;;;;5036935;28;20223;-87
2022/12/04 06:16:48;;;;;;;76.18;12.13;;;2.40;99.90;;;;;;5036112;28;20543;-87
2022/12/04 06:21:56;;;;;;;79.00;12.32;;;2.40;99.90;;;;;;5091553;22;20224;-87
2022/12/04 06:24:50;;;;;;;;;;;;;;;;;;;;;
2022/12/04 06:27:43;;;;;;;79.35;13.23;;;2.40;99.90;;;;;;5040426;28;20248;-86
2022/12/04 06:30:50;;;;;;;79.97;12.50;;;2.40;99.90;;;;;;5039971;28;20201;-86
2022/12/04 06:33:50;;;;;;;;;;;;;;;;;;;;;
2022/12/04 06:39:56;;;;;;;78.47;13.52;;;2.30;99.90;;;;;;5027179;28;20181;-86
2022/12/04 06:43:01;;;;;;;80.40;13.35;;;2.30;99.90;;;;;;5038336;28;20227;-87
2022/12/04 06:45:38;;;;;;;76.30;12.20;;;2.30;99.90;;;;;;5038179;28;20306;-86
2022/12/04 06:49:21;;;;;;;77.57;13.52;;;2.30;99.90;;;;;;5042235;28;20208;-86
2022/12/04 06:52:05;;;;;;;78.40;13.00;;;2.30;99.90;;;;;;5025311;28;20276;-87
2022/12/04 06:55:08;;;;;;;;;;;;;;;;;;;;;
2022/12/04 07:02:11;;;;;;;;;;;;;;;;;;;;;
2022/12/04 07:04:58;;;;;;;75.18;12.40;;;2.30;99.90;;;;;;5042224;28;20244;-87
2022/12/04 07:07:43;;;;;;;76.97;12.70;;;2.20;99.90;;;;;;5044093;28;20184;-87
2022/12/04 07:10:37;;;;;;;77.93;12.52;;;2.20;99.90;;;;;;5045225;28;20207;-87
2022/12/04 07:13:33;;;;;;;;;;;;;;;;;;;;;
2022/12/04 07:16:57;;;;;;;76.97;11.85;;;2.10;99.90;;;;;;5044678;28;20257;-87
2022/12/04 07:22:45;;;;;;;80.30;13.48;;;2.10;99.90;;;;;;5041682;28;20177;-87
2022/12/04 07:25:31;;;;;;;77.47;12.75;;;2.10;99.90;;;;;;5044958;28;20223;-87
2022/12/04 07:28:06;;;;;;;77.32;12.60;;;2.10;99.90;;;;;;5045442;28;20223;-87
2022/12/04 07:31:02;;;;;;;77.22;13.52;;;2.00;99.90;;;;;;5043573;28;20303;-87
2022/12/04 07:33:48;;;;;;;78.63;13.75;;;2.00;99.90;;;;;;5045323;28;20177;-87
2022/12/04 07:36:37;;;;;;;83.00;13.45;;;2.00;99.90;;;;;;5044345;28;20200;-87
2022/12/04 07:46:15;;;;;;;78.63;13.02;;;1.90;99.90;;;;;;5002999;28;20190;-87
2022/12/04 07:49:21;;;;;;;;;;;;;;;;;;;;;
2022/12/04 07:52:24;;;;;;;77.10;11.65;;;1.90;99.90;;;;;;4922543;29;20287;-86
2022/12/04 07:54:53;;;;;;;76.95;12.77;;;1.90;99.90;;;;;;4919286;29;20169;-87
2022/12/04 08:00:45;;;;;;;77.57;12.73;;;2.00;99.90;;;;;;4947005;29;20324;-86
2022/12/04 08:03:30;;;;;;;80.38;14.02;;;2.10;99.90;;;;;;4985754;28;20706;-87
2022/12/04 08:06:08;;;;;;;76.85;12.82;;;2.00;99.90;;;;;;5038561;28;20535;-87
2022/12/04 08:08:46;;;;;;;77.53;13.35;;;2.00;99.90;;;;;;5037761;28;20179;-87
2022/12/04 08:11:32;;;;;;;78.65;12.25;;;2.00;99.90;;;;;;5038694;28;20181;-86
2022/12/04 08:14:14;;;;;;;76.38;12.35;;;2.00;99.90;;;;;;5039039;28;20228;-86
2022/12/04 08:17:02;;;;;;;78.72;13.27;;;1.90;99.90;;;;;;5039107;28;20153;-86
2022/12/04 08:19:28;;;;;;;80.03;13.90;;;1.90;99.90;;;;;;5038647;28;20226;-86
2022/12/04 08:22:20;;;;;;;75.10;11.40;;;1.90;99.90;;;;;;5041177;28;20200;-87
2022/12/04 08:25:37;;;;;;;80.28;13.25;;;1.90;99.90;;;;;;5039418;28;20979;-87
2022/12/04 08:28:06;;;;;;;78.82;13.65;;;1.90;99.90;;;;;;5037635;28;20184;-86
2022/12/04 08:30:42;;;;;;;80.82;14.05;;;2.00;99.90;;;;;;5038217;28;20231;-86
2022/12/04 08:33:26;;;;;;;80.32;14.05;;;2.00;99.90;;;;;;5039421;28;20568;-86
2022/12/04 08:35:55;;;;;;;80.32;12.82;;;2.00;99.90;;;;;;5039078;28;20515;-87
2022/12/04 08:38:33;;;;;;;;;;;;;;;;;;;;;
2022/12/04 08:57:51;;;;;;;79.53;13.57;;;1.80;99.90;;;;;;5059027;28;20208;-86
2022/12/04 09:00:32;;;;;;;78.43;11.48;;;1.90;99.90;;;;;;4996326;28;20198;-86
2022/12/04 09:03:43;;;;;;;84.13;16.05;;;2.00;99.90;;;;;;4982161;28;20174;-86
2022/12/04 09:09:30;;;;;;;83.35;16.90;;;1.90;99.90;;;;;;4980388;28;20203;-87
2022/12/04 09:12:06;;;;;;;83.35;17.40;;;1.80;99.90;;;;;;4984408;28;20174;-87
2022/12/04 09:14:40;;;;;;;83.00;15.75;;;1.80;99.90;;;;;;4984351;28;20173;-86
2022/12/04 09:17:29;;;;;;;82.10;14.95;;;1.90;99.90;;;;;;4979282;28;20177;-87
2022/12/04 09:20:31;;;;;;;77.72;15.32;;;1.90;99.90;;;;;;4985709;28;20289;-87
2022/12/04 09:23:34;;;;;;;78.10;16.20;;;1.90;99.90;;;;;;4987127;28;20186;-87
2022/12/04 09:26:45;;;;;;;79.65;14.68;;;1.90;99.90;;;;;;5052223;28;20187;-87
2022/12/04 09:29:14;;;;;;;79.43;16.23;;;1.90;99.90;;;;;;5058666;28;20204;-86
2022/12/04 09:31:56;;;;;;;83.32;16.05;;;2.00;99.90;;;;;;5043714;28;20181;-87
2022/12/04 09:34:58;;;;;;;81.28;15.68;;;2.00;99.90;;;;;;5058597;28;20157;-87
2022/12/04 09:37:50;;;;;;;81.57;15.80;;;2.00;99.90;;;;;;5057649;28;20177;-87
2022/12/04 09:40:42;;;;;;;80.15;15.90;;;2.00;99.90;;;;;;5043239;28;20201;-87
2022/12/04 09:43:56;;;;;;;78.22;14.80;;;2.00;99.90;;;;;;5039943;28;20190;-86
2022/12/04 09:47:08;;;;;;;79.05;15.07;;;2.00;99.90;;;;;;5021696;28;20220;-86
2022/12/04 09:50:34;;;;;;;83.28;15.35;;;2.00;99.90;;;;;;5025715;28;20201;-87
2022/12/04 09:53:39;;;;;;;77.88;15.57;;;2.00;99.90;;;;;;5027492;28;20181;-87
2022/12/04 10:05:03;;;;;;;83.18;16.48;;;2.00;99.90;;;;;;5004979;28;20186;-86
2022/12/04 10:08:24;;;;;;;;;;;;;;;;;;;;;
2022/12/04 10:11:32;;;;;;;81.53;15.80;;;2.20;99.90;;;;;;5033245;28;20641;-86
2022/12/04 10:14:39;;;;;;;80.43;15.85;;;2.10;99.90;;;;;;5045024;28;20184;-86
2022/12/04 10:21:27;;;;;;;79.07;14.57;;;2.20;99.90;;;;;;4973654;28;20190;-86
2022/12/04 10:24:54;;;;;;;81.82;18.55;;;2.20;99.90;;;;;;4982844;28;20205;-86
2022/12/04 10:30:40;;;;;;;80.07;15.35;;;2.30;99.90;;;;;;4906583;29;20216;-86
2022/12/04 10:33:17;;;;;;;78.05;16.45;;;2.30;99.90;;;;;;4969417;28;20206;-86
2022/12/04 10:35:46;;;;;;;81.35;17.45;;;2.50;99.90;;;;;;5016808;28;20542;-87
2022/12/04 10:38:31;;;;;;;79.53;15.75;;;2.60;99.90;;;;;;5038695;28;20656;-87
2022/12/04 10:41:16;;;;;;;83.40;17.95;;;2.60;99.90;;;;;;5037935;28;20197;-86
2022/12/04 10:43:44;;;;;;;80.57;15.80;;;2.70;99.90;;;;;;5039060;28;20149;-86
2022/12/04 10:46:18;;;;;;;79.72;15.20;;;2.70;99.90;;;;;;5037586;28;20197;-86
2022/12/04 10:48:49;;;;;;;82.25;14.30;;;2.80;99.90;;;;;;5037130;28;20530;-86
2022/12/04 10:51:17;;;;;;;82.10;14.13;;;2.90;99.90;;;;;;5036322;28;20182;-86
2022/12/04 10:53:45;;;;;;;81.10;13.80;;;2.90;99.90;;;;;;5036083;28;20174;-86
2022/12/04 10:56:26;;;;;;;79.22;13.77;;;3.00;99.90;;;;;;5036970;28;20578;-87
2022/12/04 10:59:01;;;;;;;78.97;12.30;;;3.10;99.90;;;;;;5038100;28;20157;-87
2022/12/04 11:01:30;;;;;;;82.78;15.13;;;3.00;99.90;;;;;;5037697;28;20204;-86
2022/12/04 11:04:03;;;;;;;80.90;14.68;;;3.00;99.90;;;;;;5044132;28;20167;-86
2022/12/04 11:06:29;;;;;;;79.70;13.63;;;2.90;99.90;;;;;;5044862;28;20161;-86
2022/12/04 11:08:56;;;;;;;82.30;14.63;;;3.00;99.90;;;;;;5047973;28;20193;-86
2022/12/04 11:11:30;;;;;;;81.05;14.15;;;2.90;99.90;;;;;;5046390;28;20181;-86
2022/12/04 11:14:05;;;;;;;78.75;14.10;;;2.90;99.90;;;;;;5045122;28;20654;-84
2022/12/04 11:16:37;;;;;;;79.13;14.02;;;2.90;99.90;;;;;;5042154;28;20157;-86
2022/12/04 11:19:17;;;;;;;81.15;15.57;;;2.80;99.90;;;;;;5038368;28;20256;-88
2022/12/04 11:21:43;;;;;;;81.78;14.48;;;2.80;99.90;;;;;;5038828;28;20188;-86
2022/12/04 11:24:28;;;;;;;80.70;13.60;;;2.80;99.90;;;;;;5041148;28;20165;-86
2022/12/04 11:26:55;;;;;;;80.05;12.73;;;2.90;99.90;;;;;;5042481;28;20642;-86
2022/12/04 11:29:44;;;;;;;81.70;14.38;;;3.00;99.90;;;;;;5042786;28;20212;-86
2022/12/04 11:32:26;;;;;;;79.30;13.02;;;2.90;99.90;;;;;;5039458;28;20173;-87
2022/12/04 11:35:01;;;;;;;83.38;14.10;;;2.90;99.90;;;;;;5039214;28;20161;-86
2022/12/04 11:37:31;;;;;;;85.65;15.57;;;2.90;99.90;;;;;;5044388;28;20940;-87
2022/12/04 11:39:57;;;;;;;79.25;14.98;;;2.90;99.90;;;;;;5048221;28;20482;-86
2022/12/04 11:42:26;;;;;;;80.90;15.13;;;2.80;99.90;;;;;;5046779;28;20642;-86
2022/12/04 11:45:00;;;;;;;82.20;15.73;;;2.70;99.90;;;;;;5048773;28;20192;-87
2022/12/04 11:47:30;;;;;;;81.63;12.95;;;2.70;99.90;;;;;;5048273;28;20153;-86
2022/12/04 11:50:25;;;;;;;80.75;14.80;;;2.80;99.90;;;;;;5047015;28;20201;-86
2022/12/04 11:53:12;;;;;;;78.95;12.98;;;2.80;99.90;;;;;;5045424;28;20223;-86
2022/12/04 11:56:13;;;;;;;80.22;14.13;;;2.80;99.90;;;;;;5044924;28;20189;-85
2022/12/04 12:01:25;;;;;;;81.68;13.68;;;2.70;99.90;;;;;;5138383;22;20288;-84
2022/12/04 12:04:19;;;;;;;79.85;13.95;;;2.60;99.90;;;;;;5042895;28;20172;-83
2022/12/04 12:06:48;;;;;;;83.68;14.57;;;2.60;99.90;;;;;;5044457;28;20149;-84
2022/12/04 12:09:32;;;;;;;80.57;14.55;;;2.60;99.90;;;;;;5044294;28;20197;-84
2022/12/04 12:12:05;;;;;;;81.35;15.10;;;2.70;99.90;;;;;;5044386;28;20209;-84
2022/12/04 12:14:51;;;;;;;82.60;15.23;;;2.70;99.90;;;;;;5042924;28;20176;-84
2022/12/04 12:17:36;;;;;;;78.78;12.50;;;2.80;99.90;;;;;;5043465;28;20164;-83
2022/12/04 12:20:15;;;;;;;83.30;14.23;;;2.80;99.90;;;;;;5043116;28;20697;-84
2022/12/04 12:22:54;;;;;;;82.53;14.30;;;2.80;99.90;;;;;;5043671;28;20154;-84
2022/12/04 12:25:44;;;;;;;82.25;14.30;;;2.80;99.90;;;;;;5043549;28;20154;-84
2022/12/04 12:28:48;;;;;;;83.30;15.00;;;2.90;99.90;;;;;;5044435;28;20161;-83
2022/12/04 12:31:32;;;;;;;87.70;13.63;;;3.00;99.90;;;;;;5039571;28;20570;-84
2022/12/04 12:34:08;;;;;;;86.47;14.02;;;3.10;99.90;;;;;;5043552;28;20491;-85
2022/12/04 12:36:39;;;;;;;80.72;12.93;;;3.10;99.90;;;;;;5042392;28;20606;-84
2022/12/04 12:39:17;;;;;;;79.35;12.02;;;3.10;99.90;;;;;;5042957;28;20172;-84
2022/12/04 12:42:01;;;;;;;80.47;12.55;;;3.10;99.90;;;;;;5042810;28;20181;-85
2022/12/04 12:44:43;;;;;;;78.60;13.65;;;3.00;99.90;;;;;;5041076;28;20170;-85
2022/12/04 12:47:16;;;;;;;84.40;12.70;;;3.00;99.90;;;;;;5043262;28;20164;-85
2022/12/04 12:50:29;;;;;;;80.53;12.90;;;3.10;99.90;;;;;;5043464;28;20177;-85
2022/12/04 12:53:00;;;;;;;84.28;13.50;;;3.20;99.90;;;;;;5043167;28;20181;-85
2022/12/04 12:55:43;;;;;;;78.75;13.73;;;3.30;99.90;;;;;;5042132;28;20172;-85
2022/12/04 12:58:52;;;;;;;83.38;14.88;;;3.10;99.90;;;;;;5042825;28;20181;-85
2022/12/04 13:01:51;;;;;;;81.72;14.07;;;3.20;99.90;;;;;;5041672;28;20201;-85
2022/12/04 13:04:37;;;;;;;79.90;14.48;;;3.20;99.90;;;;;;5040930;28;20161;-85
2022/12/04 13:07:11;;;;;;;81.85;12.80;;;3.20;99.90;;;;;;5043694;28;20142;-85
2022/12/04 13:09:44;;;;;;;81.05;13.20;;;3.10;99.90;;;;;;5041109;28;20196;-85
2022/12/04 13:12:13;;;;;;;81.35;13.60;;;3.10;99.90;;;;;;5042599;28;20244;-85
2022/12/04 13:14:39;;;;;;;86.00;15.45;;;3.20;99.90;;;;;;5043249;28;20165;-85
2022/12/04 13:17:17;;;;;;;80.47;13.70;;;3.20;99.90;;;;;;5043057;28;20224;-84
2022/12/04 13:19:53;;;;;;;89.05;16.13;;;3.20;99.90;;;;;;5042228;28;20938;-85
2022/12/04 13:22:42;;;;;;;79.35;13.38;;;3.30;99.90;;;;;;5042776;28;20146;-85
2022/12/04 13:25:39;;;;;;;81.15;14.10;;;3.30;99.90;;;;;;5042510;28;20154;-85
2022/12/04 13:28:35;;;;;;;81.25;13.48;;;3.20;99.90;;;;;;5041631;28;20173;-84
2022/12/04 13:31:37;;;;;;;85.78;13.95;;;3.20;99.90;;;;;;5041591;28;20613;-85
2022/12/04 13:34:24;;;;;;;83.30;15.55;;;3.30;99.90;;;;;;5041619;28;20183;-85
2022/12/04 13:37:03;;;;;;;85.53;14.68;;;3.20;99.90;;;;;;5042620;28;20287;-85
2022/12/04 13:40:05;;;;;;;80.75;14.40;;;3.30;99.90;;;;;;5040664;28;20191;-84
2022/12/04 13:42:31;;;;;;;83.32;14.40;;;3.30;99.90;;;;;;5041880;28;20161;-84
2022/12/04 13:45:01;;;;;;;85.93;15.23;;;3.40;99.90;;;;;;5042939;28;20177;-85
2022/12/04 13:47:30;;;;;;;80.78;14.60;;;3.40;99.90;;;;;;5041905;28;20161;-85
2022/12/04 13:50:11;;;;;;;83.75;15.65;;;3.40;99.90;;;;;;5040049;28;20223;-85
2022/12/04 13:52:39;;;;;;;81.57;13.95;;;3.40;99.90;;;;;;5041733;28;20161;-84
2022/12/04 13:55:30;;;;;;;81.60;15.07;;;3.30;99.90;;;;;;5040327;28;20252;-84
2022/12/04 13:57:59;;;;;;;81.22;15.25;;;3.30;99.90;;;;;;5040638;28;20169;-84
2022/12/04 14:00:33;;;;;;;80.63;13.35;;;3.20;99.90;;;;;;5041170;28;20257;-85
2022/12/04 14:03:20;;;;;;;84.07;15.10;;;3.30;99.90;;;;;;5041094;28;20176;-84
2022/12/04 14:05:46;;;;;;;80.78;12.77;;;3.20;99.90;;;;;;5042204;28;20150;-84
2022/12/04 14:08:18;;;;;;;82.65;14.75;;;3.30;99.90;;;;;;5041260;28;20173;-84
2022/12/04 14:10:57;;;;;;;87.13;16.63;;;3.20;99.90;;;;;;5041202;28;20258;-84
2022/12/04 14:13:26;;;;;;;86.70;17.33;;;3.20;99.90;;;;;;5039466;28;20527;-85
2022/12/04 14:16:23;;;;;;;86.35;14.73;;;3.20;99.90;;;;;;5041417;28;20188;-85
2022/12/04 14:18:55;;;;;;;85.72;14.10;;;3.20;99.90;;;;;;5038970;28;20177;-85
2022/12/04 14:21:22;;;;;;;81.70;14.10;;;3.30;99.90;;;;;;5040341;28;20624;-85
2022/12/04 14:23:48;;;;;;;85.63;14.88;;;3.40;99.90;;;;;;5042330;28;20157;-85
2022/12/04 14:26:32;;;;;;;83.85;16.10;;;3.20;99.90;;;;;;5040659;28;20199;-84
2022/12/04 14:29:16;;;;;;;85.85;15.13;;;3.30;99.90;;;;;;5040302;28;20169;-84
2022/12/04 14:31:42;;;;;;;85.65;14.98;;;3.30;99.90;;;;;;5041389;28;20185;-85
2022/12/04 14:34:11;;;;;;;84.13;14.63;;;3.40;99.90;;;;;;5041569;28;20176;-84
2022/12/04 14:36:42;;;;;;;78.47;12.98;;;3.40;99.90;;;;;;5040984;28;20172;-84
2022/12/04 14:39:19;;;;;;;86.78;14.93;;;3.50;99.90;;;;;;5041710;28;20211;-85
2022/12/04 14:41:45;;;;;;;85.38;14.40;;;3.40;99.90;;;;;;5042391;28;20223;-85
2022/12/04 14:44:30;;;;;;;85.77;15.40;;;3.30;99.90;;;;;;5045536;28;20169;-84
2022/12/04 14:47:37;;;;;;;82.70;14.55;;;3.20;99.90;;;;;;5045058;28;20156;-85
2022/12/04 14:50:28;;;;;;;85.03;15.07;;;3.20;99.90;;;;;;5043419;28;20213;-84
2022/12/04 14:53:17;;;;;;;84.90;14.45;;;3.20;99.90;;;;;;5045460;28;20145;-84
2022/12/04 14:55:59;;;;;;;86.05;15.38;;;3.30;99.90;;;;;;5045127;28;20213;-84
2022/12/04 14:58:35;;;;;;;84.22;14.63;;;3.30;99.90;;;;;;5045391;28;20150;-84
2022/12/04 15:01:18;;;;;;;84.68;14.60;;;3.20;99.90;;;;;;5043989;28;20299;-85